KBWD/BWD METAR and TAF weather

Enter ICAO airport designator
Station Type Date Time Source
KBWD METAR 2024/06/14 22:35 UTC NOAA

KBWD 142235Z AUTO 10004G17KT 10SM CLR 33/18 A2994 RMK AO1


Station Type Date Time Source
KBWD Decoded METAR 2024/06/14 22:35 UTC NOAA

Brownwood, Brownwood Regional Airport, TX, United States (KBWD) 31-48N 098-57W
Jun 14, 2024 - 06:35 PM EDT / 2024.06.14 2235 UTC
Wind: from the E (100 degrees) at 5 MPH (4 KT) gusting to 20 MPH (17 KT):0
Visibility: 10 mile(s):0
Sky conditions: clear
Temperature: 91 F (33 C)
Dew Point: 64 F (18 C)
Relative Humidity: 41%
Pressure (altimeter): 29.94 in. Hg (1013 hPa)
ob: KBWD 142235Z AUTO 10004G17KT 10SM CLR 33/18 A2994 RMK AO1
cycle: 22

Station Type Date Time Source
KBWD TAF UTC NOAA

Error!

Example: see airport list